Time;durP1;ratioP1;P1;durP2;ratioP2;P2;SDS_P1;SDS_P2;PMS_P1;PMS_P2;Temp;Humidity;BMP_temperature;BMP_pressure;BME280_temperature;BME280_humidity;BME280_pressure;Samples;Min_cycle;Max_cycle;Signal;HPM_P1;HPM_P2
2022/03/12 00:01:18;;;;;;;10.32;6.20;;;6.60;63.80;;;;;;5151615;27;20455;-75
2022/03/12 00:03:46;;;;;;;13.60;6.47;;;7.20;63.70;;;;;;5149066;27;20049;-75
2022/03/12 00:06:12;;;;;;;11.02;7.05;;;6.70;63.50;;;;;;5132623;27;20061;-75
2022/03/12 00:08:45;;;;;;;11.40;5.85;;;6.60;63.80;;;;;;5131253;27;20125;-74
2022/03/12 00:11:14;;;;;;;11.60;6.22;;;6.60;63.90;;;;;;5132880;27;20047;-74
2022/03/12 00:13:41;;;;;;;10.88;6.07;;;6.60;63.90;;;;;;5114075;27;20037;-75
2022/03/12 00:16:13;;;;;;;10.82;6.10;;;8.10;64.90;;;;;;5127548;27;20115;-74
2022/03/12 00:18:42;;;;;;;10.15;6.05;;;6.60;64.30;;;;;;5128075;27;20126;-75
2022/03/12 00:21:11;;;;;;;9.63;6.47;;;6.60;64.20;;;;;;5142017;27;20039;-75
2022/03/12 00:23:37;;;;;;;8.88;5.80;;;6.50;64.30;;;;;;5150281;27;20363;-75
2022/03/12 00:26:03;;;;;;;11.30;6.32;;;6.50;64.80;;;;;;5151031;27;20160;-74
2022/03/12 00:28:29;;;;;;;9.68;6.30;;;7.60;65.10;;;;;;5133921;27;20053;-75
2022/03/12 00:30:55;;;;;;;12.45;6.65;;;6.50;64.60;;;;;;5152962;27;20039;-75
2022/03/12 00:33:22;;;;;;;12.63;6.32;;;6.50;64.60;;;;;;5130291;27;20046;-75
2022/03/12 00:35:49;;;;;;;14.50;6.82;;;6.50;64.60;;;;;;5133916;27;20046;-75
2022/03/12 00:38:21;;;;;;;13.35;6.40;;;6.50;64.70;;;;;;5131106;27;20107;-75
2022/03/12 00:40:47;;;;;;;12.25;6.90;;;5.20;64.10;;;;;;5114059;27;20074;-75
2022/03/12 00:43:15;;;;;;;10.95;5.93;;;6.50;64.80;;;;;;5149846;27;20130;-74
2022/03/12 00:45:42;;;;;;;11.68;6.55;;;6.40;65.00;;;;;;5114951;27;20082;-75
2022/03/12 00:48:07;;;;;;;10.20;6.40;;;6.50;65.30;;;;;;5129738;27;20072;-75
2022/03/12 00:50:34;;;;;;;13.07;6.25;;;6.50;65.00;;;;;;5150286;27;20122;-75
2022/03/12 00:53:00;;;;;;;11.88;6.07;;;6.50;65.00;;;;;;5121070;27;20407;-75
2022/03/12 00:55:26;;;;;;;11.23;6.07;;;6.50;64.90;;;;;;5128986;27;20039;-75
2022/03/12 00:57:52;;;;;;;12.73;6.40;;;6.40;65.00;;;;;;5120497;27;20082;-74
2022/03/12 01:00:20;;;;;;;10.15;5.95;;;6.50;64.60;;;;;;5150581;27;20133;-74
2022/03/12 01:02:47;;;;;;;10.23;6.13;;;7.10;64.90;;;;;;5113548;27;20050;-75
2022/03/12 01:05:14;;;;;;;11.43;6.80;;;6.50;64.70;;;;;;5132413;27;20055;-74
2022/03/12 01:07:40;;;;;;;11.25;6.07;;;7.20;65.40;;;;;;5130477;27;20550;-75
2022/03/12 01:10:06;;;;;;;11.57;6.60;;;7.60;65.50;;;;;;5131699;27;20046;-75
2022/03/12 01:12:31;;;;;;;9.52;6.30;;;6.50;64.90;;;;;;5149286;27;20133;-75
2022/03/12 01:14:57;;;;;;;10.85;6.20;;;6.50;65.10;;;;;;5148881;27;20129;-75
2022/03/12 01:17:23;;;;;;;10.73;6.43;;;7.80;66.00;;;;;;5149055;27;20043;-75
2022/03/12 01:19:49;;;;;;;11.90;6.65;;;7.40;66.40;;;;;;5147990;27;20046;-75
2022/03/12 01:22:20;;;;;;;10.38;6.32;;;6.40;65.30;;;;;;5148044;27;20138;-74
2022/03/12 01:24:47;;;;;;;10.23;6.60;;;6.40;65.20;;;;;;5149657;27;20039;-74
2022/03/12 01:27:15;;;;;;;10.32;6.30;;;6.50;65.10;;;;;;5150469;27;20375;-75
2022/03/12 01:29:42;;;;;;;11.52;6.43;;;6.40;65.60;;;;;;5130055;27;20051;-75
2022/03/12 01:32:09;;;;;;;11.45;6.13;;;7.10;65.70;;;;;;5131419;27;20031;-74
2022/03/12 01:34:34;;;;;;;12.93;6.43;;;6.50;65.70;;;;;;5130600;27;20469;-75
2022/03/12 01:37:00;;;;;;;11.57;6.32;;;7.80;66.10;;;;;;5129432;27;20298;-75
2022/03/12 01:39:27;;;;;;;12.68;7.13;;;6.40;65.40;;;;;;5149474;27;20486;-75
2022/03/12 01:41:54;;;;;;;9.43;6.25;;;6.50;65.40;;;;;;5132094;27;20042;-75
2022/03/12 01:44:21;;;;;;;12.30;6.82;;;6.40;65.90;;;;;;5132245;27;20039;-75
2022/03/12 01:46:48;;;;;;;9.02;6.13;;;7.90;66.50;;;;;;5149324;27;20066;-75
2022/03/12 01:49:18;;;;;;;18.00;6.13;;;6.50;65.50;;;;;;5130119;27;20082;-75
2022/03/12 01:51:46;;;;;;;10.80;6.72;;;5.20;65.00;;;;;;5148222;27;20440;-75
2022/03/12 01:54:17;;;;;;;11.90;6.45;;;7.70;66.40;;;;;;5152055;27;20055;-75
2022/03/12 01:56:44;;;;;;;11.02;6.10;;;7.00;66.10;;;;;;5130770;27;20038;-75
2022/03/12 01:59:10;;;;;;;11.00;6.57;;;6.40;66.00;;;;;;5130271;27;20133;-74
2022/03/12 02:01:35;;;;;;;15.10;6.68;;;6.40;66.00;;;;;;5149877;27;20439;-75
2022/03/12 02:04:01;;;;;;;10.93;6.72;;;6.30;66.20;;;;;;5130113;27;20141;-75
2022/03/12 02:06:27;;;;;;;13.25;7.03;;;7.30;67.20;;;;;;5149044;27;20034;-75
2022/03/12 02:08:58;;;;;;;11.98;6.85;;;6.70;66.70;;;;;;5149035;27;20356;-75
2022/03/12 02:11:28;;;;;;;17.58;6.72;;;6.20;66.80;;;;;;5130295;27;20054;-75
2022/03/12 02:14:16;;;;;;;11.63;6.63;;;6.20;66.90;;;;;;5131054;27;20146;-75
2022/03/12 02:17:07;;;;;;;11.90;6.70;;;6.30;66.90;;;;;;5120539;28;20445;-75
2022/03/12 02:19:33;;;;;;;10.02;6.53;;;6.20;67.20;;;;;;5116305;27;20077;-76
2022/03/12 02:22:05;;;;;;;10.25;6.88;;;7.10;67.70;;;;;;5111856;28;20078;-75
2022/03/12 02:24:34;;;;;;;10.30;6.70;;;6.20;67.60;;;;;;5109919;28;20096;-75
2022/03/12 02:27:03;;;;;;;13.30;7.30;;;6.20;68.00;;;;;;5147028;27;20447;-75
2022/03/12 02:29:30;;;;;;;11.02;6.85;;;6.20;68.20;;;;;;5130221;27;20442;-75
2022/03/12 02:32:01;;;;;;;11.05;6.90;;;6.10;68.30;;;;;;5149421;27;20506;-75
2022/03/12 02:34:36;;;;;;;11.38;6.80;;;7.40;69.30;;;;;;5129203;27;20047;-75
2022/03/12 02:37:02;;;;;;;10.50;6.75;;;6.10;68.30;;;;;;5130563;27;20122;-75
2022/03/12 02:39:27;;;;;;;10.60;5.80;;;7.00;69.10;;;;;;5129849;27;20478;-75
2022/03/12 02:41:55;;;;;;;10.27;6.80;;;6.80;69.80;;;;;;5147307;27;20047;-75
2022/03/12 02:44:24;;;;;;;10.57;6.18;;;6.10;68.80;;;;;;5149458;27;20046;-75
2022/03/12 02:47:21;;;;;;;10.73;6.15;;;6.10;69.10;;;;;;5130367;27;20042;-75
2022/03/12 02:49:54;;;;;;;12.98;7.40;;;6.10;69.00;;;;;;5154402;27;20348;-75
2022/03/12 02:52:25;;;;;;;11.65;6.90;;;6.00;69.20;;;;;;5129278;27;20118;-75
2022/03/12 02:54:51;;;;;;;12.10;6.93;;;6.00;69.40;;;;;;5112879;27;20043;-74
2022/03/12 02:57:20;;;;;;;14.38;6.85;;;7.20;70.40;;;;;;5113838;27;20405;-75
2022/03/12 02:59:49;;;;;;;10.75;6.70;;;6.00;70.20;;;;;;5131614;27;20059;-74
2022/03/12 03:02:15;;;;;;;15.77;7.32;;;7.40;71.10;;;;;;5132543;27;20478;-75
2022/03/12 03:04:41;;;;;;;11.02;6.75;;;6.00;70.50;;;;;;5105994;27;20047;-74
2022/03/12 03:07:08;;;;;;;11.77;7.15;;;6.60;70.90;;;;;;5133959;27;20144;-75
2022/03/12 03:09:35;;;;;;;11.23;6.38;;;7.50;71.50;;;;;;5151461;27;20378;-75
2022/03/12 03:12:03;;;;;;;13.68;6.97;;;6.00;71.00;;;;;;5153229;27;20386;-75
2022/03/12 03:14:29;;;;;;;11.20;6.60;;;6.00;70.80;;;;;;5132719;27;20495;-75
2022/03/12 03:16:58;;;;;;;11.05;7.07;;;6.50;71.10;;;;;;5135209;27;20076;-75
2022/03/12 03:19:26;;;;;;;12.40;6.85;;;5.90;71.00;;;;;;5151842;27;20043;-75
2022/03/12 03:21:53;;;;;;;10.68;7.30;;;7.10;71.80;;;;;;5132661;27;20503;-74
2022/03/12 03:24:19;;;;;;;12.20;6.95;;;6.70;71.90;;;;;;5152651;27;20043;-74
2022/03/12 03:26:44;;;;;;;12.15;7.13;;;6.80;71.80;;;;;;5133424;27;20199;-75
2022/03/12 03:29:13;;;;;;;11.65;7.32;;;6.00;71.10;;;;;;5151814;27;20140;-74
2022/03/12 03:31:39;;;;;;;11.05;7.05;;;5.90;71.30;;;;;;5132968;27;20073;-75
2022/03/12 03:34:04;;;;;;;10.32;6.82;;;5.90;71.80;;;;;;5134061;27;20114;-75
2022/03/12 03:36:30;;;;;;;14.43;7.45;;;7.10;72.70;;;;;;5151169;27;20046;-75
2022/03/12 03:38:55;;;;;;;14.82;7.05;;;5.90;72.40;;;;;;5115906;27;20071;-75
2022/03/12 03:41:21;;;;;;;9.93;7.05;;;6.20;72.80;;;;;;5153166;27;20043;-75
2022/03/12 03:43:48;;;;;;;11.95;7.15;;;7.10;74.10;;;;;;5154300;27;20126;-74
2022/03/12 03:46:20;;;;;;;10.82;6.75;;;7.30;73.80;;;;;;5137279;27;20042;-75
2022/03/12 03:48:48;;;;;;;10.95;7.30;;;5.90;73.50;;;;;;5133288;27;20317;-75
2022/03/12 03:51:14;;;;;;;11.02;6.85;;;5.80;73.20;;;;;;5132968;27;20078;-75
2022/03/12 03:53:39;;;;;;;11.80;6.70;;;5.80;73.50;;;;;;5132083;27;20103;-75
2022/03/12 03:56:06;;;;;;;12.18;7.20;;;6.60;74.00;;;;;;5133311;27;20078;-75
2022/03/12 03:58:32;;;;;;;12.63;6.90;;;5.80;73.80;;;;;;5133043;27;20149;-76
2022/03/12 04:01:01;;;;;;;9.43;6.32;;;5.80;73.80;;;;;;5135932;27;20039;-75
2022/03/12 04:03:32;;;;;;;9.88;6.75;;;5.80;74.00;;;;;;5151020;27;20035;-75
2022/03/12 04:06:01;;;;;;;9.52;6.53;;;5.80;73.70;;;;;;5133272;27;20554;-75
2022/03/12 04:08:27;;;;;;;11.68;7.13;;;6.70;74.80;;;;;;5132026;27;20050;-75
2022/03/12 04:10:53;;;;;;;12.40;7.32;;;7.00;75.30;;;;;;5131684;27;20076;-75
2022/03/12 04:13:21;;;;;;;10.27;6.78;;;5.60;74.70;;;;;;5115748;27;20563;-75
2022/03/12 04:15:48;;;;;;;9.63;6.65;;;5.60;75.00;;;;;;5128561;27;20077;-75
2022/03/12 04:18:18;;;;;;;12.40;6.80;;;5.60;75.30;;;;;;5128566;27;20502;-75
2022/03/12 04:20:47;;;;;;;11.93;6.75;;;5.60;74.90;;;;;;5119517;27;20171;-75
2022/03/12 04:23:19;;;;;;;10.68;7.00;;;5.60;75.50;;;;;;5151042;27;20049;-75
2022/03/12 04:25:49;;;;;;;13.02;6.88;;;5.50;75.80;;;;;;5150122;27;20567;-74
2022/03/12 04:28:15;;;;;;;15.70;7.22;;;5.50;75.90;;;;;;5150696;27;20054;-74
2022/03/12 04:30:41;;;;;;;11.40;7.10;;;6.70;76.90;;;;;;5131851;27;20039;-74
2022/03/12 04:33:10;;;;;;;13.15;7.35;;;5.50;76.40;;;;;;5149298;27;20088;-74
2022/03/12 04:35:36;;;;;;;11.00;6.43;;;6.20;76.90;;;;;;5150454;27;20039;-75
2022/03/12 04:38:03;;;;;;;10.73;6.82;;;6.50;77.00;;;;;;5131595;27;20537;-75
2022/03/12 04:40:29;;;;;;;11.98;7.13;;;5.50;76.60;;;;;;5150681;27;20039;-75
2022/03/12 04:42:55;;;;;;;11.32;6.90;;;5.50;77.20;;;;;;5116342;27;20400;-75
2022/03/12 04:45:26;;;;;;;11.82;6.90;;;5.40;77.50;;;;;;5150738;27;20123;-75
2022/03/12 04:47:54;;;;;;;13.50;6.85;;;5.40;77.40;;;;;;5148358;27;20081;-75
2022/03/12 04:50:21;;;;;;;12.27;6.88;;;6.70;78.50;;;;;;5132131;27;20126;-75
2022/03/12 04:52:49;;;;;;;12.43;6.90;;;5.40;77.80;;;;;;5110006;27;20047;-75
2022/03/12 04:55:21;;;;;;;11.63;6.70;;;6.70;78.70;;;;;;5130405;27;20437;-74
2022/03/12 04:57:47;;;;;;;10.88;6.85;;;5.40;77.80;;;;;;5110333;27;20047;-75
2022/03/12 05:00:30;;;;;;;12.43;7.53;;;5.50;77.50;;;;;;5142821;27;20122;-74
2022/03/12 05:03:18;;;;;;;12.70;6.97;;;5.50;77.90;;;;;;5130618;27;20043;-74
2022/03/12 05:05:53;;;;;;;13.77;6.78;;;5.40;77.90;;;;;;5131249;27;20075;-75
2022/03/12 05:08:25;;;;;;;11.77;7.15;;;5.50;78.00;;;;;;5148843;27;20100;-75
2022/03/12 05:10:53;;;;;;;15.93;7.00;;;6.50;78.80;;;;;;5131689;27;20043;-74
2022/03/12 05:13:23;;;;;;;11.80;6.53;;;5.40;78.50;;;;;;5131335;27;20501;-75
2022/03/12 05:15:54;;;;;;;14.75;6.88;;;5.40;78.40;;;;;;5130902;27;20506;-75
2022/03/12 05:18:23;;;;;;;11.07;7.65;;;5.40;78.30;;;;;;5131095;27;20043;-74
2022/03/12 05:20:50;;;;;;;10.40;6.47;;;6.60;79.00;;;;;;5133552;27;20554;-74
2022/03/12 05:23:17;;;;;;;11.30;6.35;;;5.50;77.80;;;;;;5130853;27;20042;-73
2022/03/12 05:25:45;;;;;;;10.05;6.20;;;6.60;78.40;;;;;;5150265;27;20147;-74
2022/03/12 05:28:22;;;;;;;12.52;7.05;;;5.60;77.50;;;;;;5149168;27;20376;-75
2022/03/12 05:30:57;;;;;;;12.00;6.68;;;6.90;78.30;;;;;;5149653;27;20329;-75
2022/03/12 05:33:23;;;;;;;11.00;7.07;;;5.50;77.60;;;;;;5130419;27;20051;-75
2022/03/12 05:35:53;;;;;;;10.90;6.57;;;6.90;78.20;;;;;;5129724;27;20578;-74
2022/03/12 05:38:19;;;;;;;14.45;7.25;;;5.50;77.00;;;;;;5130742;27;20050;-75
2022/03/12 05:40:48;;;;;;;10.10;6.72;;;6.80;77.70;;;;;;5149334;27;20436;-75
2022/03/12 05:43:15;;;;;;;9.85;6.50;;;5.50;77.00;;;;;;5129666;27;20054;-75
2022/03/12 05:45:45;;;;;;;11.70;6.72;;;5.50;76.70;;;;;;5129109;28;20050;-76
2022/03/12 05:48:12;;;;;;;9.38;6.50;;;5.60;75.50;;;;;;5092932;28;20340;-74
2022/03/12 05:50:41;;;;;;;9.75;6.40;;;7.10;75.20;;;;;;5115299;28;20042;-75
2022/03/12 05:53:10;;;;;;;10.55;6.30;;;5.70;74.10;;;;;;5128815;28;20039;-75
2022/03/12 05:55:39;;;;;;;9.13;6.22;;;5.70;74.10;;;;;;5127398;28;20054;-74
2022/03/12 05:58:10;;;;;;;10.48;6.43;;;6.60;74.30;;;;;;5093098;28;20062;-75
2022/03/12 06:00:39;;;;;;;10.60;6.57;;;5.70;73.80;;;;;;5126915;28;20176;-75
2022/03/12 06:03:05;;;;;;;10.73;5.95;;;5.70;73.90;;;;;;5126860;28;20047;-75
2022/03/12 06:05:31;;;;;;;11.35;6.50;;;7.10;75.00;;;;;;5133844;27;20664;-75
2022/03/12 06:07:59;;;;;;;9.38;6.28;;;6.30;74.20;;;;;;5145424;27;20475;-75
2022/03/12 06:10:28;;;;;;;12.05;6.60;;;5.70;74.20;;;;;;5151230;27;20082;-75
2022/03/12 06:12:56;;;;;;;10.25;6.53;;;5.90;74.70;;;;;;5113886;27;20046;-75
2022/03/12 06:15:23;;;;;;;10.80;6.45;;;6.70;75.40;;;;;;5131170;27;20050;-75
2022/03/12 06:17:50;;;;;;;11.10;6.60;;;5.70;75.20;;;;;;5127010;27;20058;-75
2022/03/12 06:20:20;;;;;;;11.77;6.68;;;5.60;75.70;;;;;;5114742;27;20410;-75
2022/03/12 06:22:47;;;;;;;9.63;6.50;;;5.60;75.90;;;;;;5112790;27;20436;-75
2022/03/12 06:25:15;;;;;;;11.20;6.60;;;6.70;77.50;;;;;;5134707;27;20394;-75
2022/03/12 06:27:42;;;;;;;12.77;6.18;;;5.60;78.20;;;;;;5133581;27;20042;-75
2022/03/12 06:30:10;;;;;;;9.18;5.93;;;5.50;77.80;;;;;;5135417;27;20406;-74
2022/03/12 06:32:37;;;;;;;9.95;6.00;;;5.50;77.70;;;;;;5150043;27;20794;-75
2022/03/12 06:35:04;;;;;;;11.00;6.50;;;6.50;78.50;;;;;;5135283;27;20111;-75
2022/03/12 06:37:29;;;;;;;9.13;6.00;;;5.50;77.70;;;;;;5133216;27;20099;-74
2022/03/12 06:39:56;;;;;;;9.38;6.72;;;6.20;78.40;;;;;;5153647;27;20047;-75
2022/03/12 06:42:24;;;;;;;11.32;6.78;;;6.40;78.90;;;;;;5118298;27;20436;-74
2022/03/12 06:44:56;;;;;;;11.55;6.20;;;6.80;79.30;;;;;;5121552;27;20089;-75
2022/03/12 06:47:26;;;;;;;10.15;6.30;;;5.40;78.60;;;;;;5151562;27;20043;-75
2022/03/12 06:49:52;;;;;;;9.15;6.38;;;5.40;78.40;;;;;;5137006;27;20046;-75
2022/03/12 06:52:17;;;;;;;10.65;6.20;;;6.00;78.80;;;;;;5133227;27;20042;-75
2022/03/12 06:54:43;;;;;;;9.82;6.07;;;5.50;78.50;;;;;;5097754;27;20055;-75
2022/03/12 06:57:10;;;;;;;10.70;6.50;;;6.50;78.80;;;;;;5137942;27;20043;-74
2022/03/12 06:59:36;;;;;;;12.05;6.88;;;5.50;78.60;;;;;;5150789;27;20482;-74
2022/03/12 07:02:01;;;;;;;10.05;6.30;;;5.50;78.80;;;;;;5133761;27;20099;-75
2022/03/12 07:04:27;;;;;;;9.15;6.07;;;5.60;78.50;;;;;;5152042;27;20043;-73
2022/03/12 07:06:53;;;;;;;10.45;6.10;;;5.60;78.30;;;;;;5131274;27;20042;-73
2022/03/12 07:09:18;;;;;;;13.05;6.60;;;5.60;78.30;;;;;;5130404;27;20474;-74
2022/03/12 07:11:44;;;;;;;9.48;6.20;;;5.60;78.10;;;;;;5115123;27;20323;-74
2022/03/12 07:14:10;;;;;;;10.25;5.70;;;6.80;78.20;;;;;;5133683;27;20039;-74
2022/03/12 07:16:36;;;;;;;12.63;6.10;;;5.80;77.20;;;;;;5129955;27;20427;-74
2022/03/12 07:19:03;;;;;;;11.57;6.75;;;5.90;76.50;;;;;;5134049;27;20074;-74
2022/03/12 07:21:29;;;;;;;10.35;6.18;;;5.90;76.30;;;;;;5132435;27;20069;-74
2022/03/12 07:23:55;;;;;;;8.98;6.05;;;6.00;75.70;;;;;;5132994;27;20077;-74
2022/03/12 07:26:21;;;;;;;10.63;6.38;;;6.20;75.50;;;;;;5132678;27;20050;-74
2022/03/12 07:28:49;;;;;;;9.88;6.07;;;7.20;75.70;;;;;;5131235;27;20038;-74
2022/03/12 07:31:16;;;;;;;9.30;6.45;;;6.20;74.40;;;;;;5133377;27;20043;-74
2022/03/12 07:33:43;;;;;;;13.50;6.82;;;6.20;74.80;;;;;;5131537;27;20042;-75
2022/03/12 07:36:09;;;;;;;10.52;6.22;;;6.70;74.80;;;;;;5130328;27;20050;-74
2022/03/12 07:38:35;;;;;;;10.23;6.72;;;6.50;74.20;;;;;;5148265;27;20110;-75
2022/03/12 07:41:01;;;;;;;10.68;6.65;;;6.70;74.30;;;;;;5150675;27;20039;-75
2022/03/12 07:43:26;;;;;;;13.40;6.63;;;7.10;73.30;;;;;;5150555;27;20038;-75
2022/03/12 07:45:52;;;;;;;9.93;6.00;;;8.10;72.10;;;;;;5151389;27;20511;-74
2022/03/12 07:48:18;;;;;;;10.80;7.03;;;8.40;70.90;;;;;;5114110;27;20061;-75
2022/03/12 07:50:44;;;;;;;10.57;6.35;;;9.80;70.20;;;;;;5131709;27;20387;-75
2022/03/12 07:53:13;;;;;;;9.90;6.47;;;9.40;68.90;;;;;;5114945;27;20038;-75
2022/03/12 07:55:42;;;;;;;11.57;7.20;;;10.50;67.50;;;;;;5135158;27;20125;-75
2022/03/12 07:58:08;;;;;;;12.15;6.82;;;11.90;64.60;;;;;;5111179;27;20055;-75
2022/03/12 08:00:34;;;;;;;10.07;7.07;;;13.30;62.00;;;;;;5130358;27;20047;-74
2022/03/12 08:02:59;;;;;;;11.27;6.13;;;14.30;59.10;;;;;;5142978;27;20049;-74
2022/03/12 08:05:26;;;;;;;9.13;6.75;;;14.50;58.40;;;;;;5133020;27;20042;-74
2022/03/12 08:07:56;;;;;;;11.52;6.35;;;12.60;58.80;;;;;;5148710;27;20574;-74
2022/03/12 08:10:22;;;;;;;10.40;6.72;;;11.90;59.50;;;;;;5117428;27;20058;-74
2022/03/12 08:12:49;;;;;;;13.48;6.78;;;11.80;60.40;;;;;;5115504;27;20046;-74
2022/03/12 08:15:15;;;;;;;9.93;6.43;;;12.50;59.40;;;;;;5133170;27;20046;-74
2022/03/12 08:17:42;;;;;;;8.95;5.97;;;12.60;59.30;;;;;;5129316;27;20552;-74
2022/03/12 08:20:08;;;;;;;9.20;6.40;;;12.30;59.40;;;;;;5133345;27;20046;-74
2022/03/12 08:22:36;;;;;;;10.40;6.80;;;12.90;59.20;;;;;;5149048;27;20137;-74
2022/03/12 08:25:03;;;;;;;10.00;6.75;;;14.20;58.10;;;;;;5114136;27;20042;-74
2022/03/12 08:27:29;;;;;;;10.82;6.55;;;15.50;56.40;;;;;;5131774;27;20050;-75
2022/03/12 08:29:55;;;;;;;10.32;6.78;;;16.10;54.70;;;;;;5131964;27;20038;-74
2022/03/12 08:32:21;;;;;;;10.57;6.72;;;15.60;54.60;;;;;;5112467;27;20095;-74
2022/03/12 08:34:47;;;;;;;12.95;6.65;;;15.10;55.10;;;;;;5115557;27;20034;-74
2022/03/12 08:37:12;;;;;;;10.25;6.15;;;13.80;55.80;;;;;;5113390;27;20046;-75
2022/03/12 08:39:40;;;;;;;11.18;6.28;;;13.30;57.10;;;;;;5110186;27;20042;-75
2022/03/12 08:42:06;;;;;;;9.63;6.60;;;13.00;57.70;;;;;;5131471;27;20050;-74
2022/03/12 08:44:32;;;;;;;10.15;6.78;;;12.80;57.90;;;;;;5134382;27;20379;-75
2022/03/12 08:46:58;;;;;;;10.27;7.13;;;12.70;58.40;;;;;;5131227;27;20126;-75
2022/03/12 08:49:24;;;;;;;10.00;6.85;;;12.70;58.50;;;;;;5149979;27;20117;-75
2022/03/12 08:51:49;;;;;;;10.23;7.05;;;13.30;58.60;;;;;;5129396;27;20520;-74
2022/03/12 08:54:19;;;;;;;11.77;7.40;;;15.00;57.50;;;;;;5130741;27;20079;-75
2022/03/12 08:56:44;;;;;;;12.23;7.00;;;16.30;56.50;;;;;;5149911;27;20046;-74
2022/03/12 08:59:10;;;;;;;12.10;7.18;;;16.20;54.30;;;;;;5147351;27;20414;-74
2022/03/12 09:01:36;;;;;;;11.50;7.55;;;16.40;53.50;;;;;;5131029;27;20053;-75
2022/03/12 09:04:02;;;;;;;13.10;7.35;;;16.70;53.50;;;;;;5130725;27;20054;-74
2022/03/12 09:06:31;;;;;;;13.60;7.38;;;17.30;53.50;;;;;;5151601;27;20462;-76
2022/03/12 09:08:58;;;;;;;13.73;7.88;;;17.80;53.10;;;;;;5132112;27;20046;-75
2022/03/12 09:11:25;;;;;;;10.35;7.35;;;18.20;52.10;;;;;;5131721;27;20049;-75
2022/03/12 09:13:50;;;;;;;14.68;7.75;;;18.60;51.80;;;;;;5113645;27;20118;-75
2022/03/12 09:16:16;;;;;;;10.05;6.95;;;19.10;50.80;;;;;;5131831;27;20481;-75
2022/03/12 09:18:46;;;;;;;11.55;7.55;;;19.70;50.00;;;;;;5128377;27;20129;-75
2022/03/12 09:21:12;;;;;;;11.48;7.95;;;19.90;49.70;;;;;;5150014;27;20043;-76
2022/03/12 09:23:38;;;;;;;11.25;7.47;;;20.40;49.10;;;;;;5147722;27;20039;-75
2022/03/12 09:26:05;;;;;;;11.88;7.32;;;20.90;48.60;;;;;;5130610;27;20103;-75
2022/03/12 09:28:31;;;;;;;10.10;7.53;;;21.50;48.30;;;;;;5112963;27;20552;-75
2022/03/12 09:30:57;;;;;;;11.68;7.35;;;22.30;47.30;;;;;;5113190;27;20039;-76
2022/03/12 09:33:23;;;;;;;11.63;7.25;;;23.10;47.20;;;;;;5127431;27;20042;-77
2022/03/12 09:35:50;;;;;;;11.95;7.20;;;23.10;46.70;;;;;;5147009;27;20081;-76
2022/03/12 09:38:16;;;;;;;12.02;7.68;;;23.30;46.20;;;;;;5146459;27;20046;-76
2022/03/12 09:40:43;;;;;;;11.30;7.68;;;23.70;45.40;;;;;;5113155;28;20118;-75
2022/03/12 09:43:10;;;;;;;15.40;7.47;;;24.20;45.00;;;;;;5129433;27;20066;-75
2022/03/12 09:45:36;;;;;;;12.77;7.40;;;24.40;45.10;;;;;;5117720;27;20317;-76
2022/03/12 09:48:02;;;;;;;13.63;7.32;;;24.60;44.60;;;;;;5130467;27;20062;-75
2022/03/12 09:50:28;;;;;;;11.57;7.10;;;24.40;44.40;;;;;;5131000;27;20039;-75
2022/03/12 09:52:54;;;;;;;11.68;7.50;;;24.50;44.00;;;;;;5148145;27;20050;-75
2022/03/12 09:55:21;;;;;;;10.07;7.47;;;24.10;44.20;;;;;;5141953;27;20428;-76
2022/03/12 09:57:48;;;;;;;10.00;7.38;;;24.10;44.30;;;;;;5128425;27;20516;-76
2022/03/12 10:00:16;;;;;;;9.05;6.75;;;24.40;44.70;;;;;;5146442;27;20375;-75
2022/03/12 10:02:42;;;;;;;10.15;7.30;;;24.20;44.40;;;;;;5152618;27;20046;-76
2022/03/12 10:05:11;;;;;;;12.80;7.85;;;24.00;44.60;;;;;;5144611;27;20035;-76
2022/03/12 10:07:37;;;;;;;15.25;8.23;;;23.70;45.20;;;;;;5133281;27;20046;-76
2022/03/12 10:10:03;;;;;;;11.57;7.25;;;24.10;44.70;;;;;;5152879;27;20041;-77
2022/03/12 10:12:29;;;;;;;9.82;7.28;;;24.00;45.00;;;;;;5133973;27;20372;-78
2022/03/12 10:14:55;;;;;;;9.90;7.32;;;23.90;45.30;;;;;;5154376;27;20038;-75
2022/03/12 10:17:21;;;;;;;10.18;7.35;;;23.90;45.90;;;;;;5133795;27;20054;-75
2022/03/12 10:19:47;;;;;;;11.15;7.32;;;23.80;46.10;;;;;;5151275;27;20123;-77
2022/03/12 10:22:14;;;;;;;11.45;7.13;;;23.60;46.60;;;;;;5112089;27;20095;-76
2022/03/12 10:24:41;;;;;;;11.85;7.35;;;23.20;47.30;;;;;;5113263;27;20046;-77
2022/03/12 10:27:07;;;;;;;10.98;8.05;;;22.80;47.90;;;;;;5115423;27;20043;-77
2022/03/12 10:29:34;;;;;;;10.02;7.45;;;23.50;48.60;;;;;;5113716;27;20479;-77
2022/03/12 10:32:22;;;;;;;12.27;7.80;;;23.10;48.30;;;;;;5132604;27;20062;-76
2022/03/12 10:34:52;;;;;;;12.52;7.35;;;23.30;47.90;;;;;;5135103;27;20107;-76
2022/03/12 10:37:23;;;;;;;10.00;7.25;;;23.70;47.40;;;;;;5133240;27;20050;-76
2022/03/12 10:40:03;;;;;;;12.32;7.65;;;23.90;47.20;;;;;;5151663;27;20347;-76
2022/03/12 10:42:31;;;;;;;13.88;7.95;;;24.20;47.40;;;;;;5116248;27;20034;-76
2022/03/12 10:45:14;;;;;;;11.50;8.20;;;24.40;47.00;;;;;;5133284;27;20046;-76
2022/03/12 10:47:48;;;;;;;10.38;7.88;;;24.50;46.60;;;;;;5132128;27;20507;-75
2022/03/12 10:50:25;;;;;;;12.95;7.45;;;24.70;46.70;;;;;;5152386;27;20486;-76
2022/03/12 10:52:53;;;;;;;9.40;7.35;;;24.50;46.90;;;;;;5123049;27;20050;-76
2022/03/12 10:55:25;;;;;;;11.93;7.53;;;24.20;47.30;;;;;;5113567;27;20047;-77
2022/03/12 10:58:02;;;;;;;10.65;7.80;;;24.10;48.30;;;;;;5130455;27;20148;-76
2022/03/12 11:00:39;;;;;;;13.10;7.55;;;23.20;49.50;;;;;;5133362;27;20135;-75
2022/03/12 11:03:11;;;;;;;11.15;7.47;;;23.20;50.00;;;;;;5094979;27;20364;-76
2022/03/12 11:05:37;;;;;;;10.68;7.32;;;23.30;50.40;;;;;;5130487;27;20047;-76
2022/03/12 11:08:30;;;;;;;10.95;7.30;;;23.60;50.00;;;;;;5112282;27;20043;-76
2022/03/12 11:10:59;;;;;;;9.25;7.60;;;23.50;50.00;;;;;;5124394;27;20062;-77
2022/03/12 11:13:46;;;;;;;15.77;8.13;;;23.00;50.60;;;;;;5131933;27;20071;-76
2022/03/12 11:16:18;;;;;;;10.90;7.53;;;22.60;51.20;;;;;;5131683;27;20047;-77
2022/03/12 11:18:52;;;;;;;11.73;8.15;;;22.30;51.70;;;;;;5128492;27;20411;-76
2022/03/12 11:21:43;;;;;;;12.88;7.97;;;22.10;52.00;;;;;;5113909;27;20436;-75
2022/03/12 11:24:15;;;;;;;11.10;7.95;;;22.10;52.40;;;;;;5131100;27;20437;-76
2022/03/12 11:26:54;;;;;;;11.13;8.27;;;22.40;52.20;;;;;;5130641;27;20043;-75
2022/03/12 11:29:22;;;;;;;11.68;7.82;;;22.90;51.80;;;;;;5130797;27;20110;-76
2022/03/12 11:31:50;;;;;;;15.15;7.97;;;23.10;51.40;;;;;;5112188;27;20437;-76
2022/03/12 11:34:20;;;;;;;11.15;7.78;;;23.30;51.50;;;;;;5110976;27;20080;-76
2022/03/12 11:36:55;;;;;;;10.35;7.93;;;23.60;51.00;;;;;;5094894;27;20058;-76
2022/03/12 11:39:28;;;;;;;11.63;7.50;;;23.30;51.20;;;;;;5111609;27;20055;-76
2022/03/12 11:42:06;;;;;;;12.05;7.82;;;22.60;52.10;;;;;;5139075;27;20039;-76
2022/03/12 11:44:33;;;;;;;11.43;8.02;;;22.10;52.80;;;;;;5133578;27;20050;-78
2022/03/12 11:46:58;;;;;;;15.00;6.97;;;22.00;53.40;;;;;;5132097;27;20038;-75
2022/03/12 11:49:24;;;;;;;11.60;7.00;;;22.30;53.80;;;;;;5150656;27;20047;-75
2022/03/12 11:51:52;;;;;;;9.50;6.43;;;23.10;53.50;;;;;;5149658;27;20054;-75
2022/03/12 11:54:18;;;;;;;9.60;6.20;;;23.50;53.50;;;;;;5131877;27;20051;-76
2022/03/12 11:56:44;;;;;;;8.98;5.72;;;23.40;53.60;;;;;;5132304;27;20050;-76
2022/03/12 11:59:10;;;;;;;11.55;6.03;;;22.90;54.20;;;;;;5133490;27;20066;-76
2022/03/12 12:01:37;;;;;;;7.78;5.80;;;22.30;55.40;;;;;;5150229;27;20082;-76
2022/03/12 12:04:04;;;;;;;9.45;5.60;;;21.90;55.80;;;;;;5151173;27;20047;-76
2022/03/12 12:06:30;;;;;;;8.38;5.43;;;21.70;56.50;;;;;;5151448;27;20130;-76
2022/03/12 12:08:57;;;;;;;9.73;5.93;;;21.70;56.70;;;;;;5149693;27;20084;-76
2022/03/12 12:11:22;;;;;;;11.05;5.93;;;21.70;56.90;;;;;;5151485;27;20372;-76
2022/03/12 12:13:48;;;;;;;10.77;5.80;;;21.70;56.30;;;;;;5148930;27;20043;-76
2022/03/12 12:16:16;;;;;;;9.68;5.35;;;22.90;55.90;;;;;;5144052;27;20035;-76
2022/03/12 12:18:41;;;;;;;10.63;5.70;;;23.60;54.30;;;;;;5123307;27;20050;-77
2022/03/12 12:21:16;;;;;;;9.23;5.70;;;23.60;53.80;;;;;;5123675;27;20128;-76
2022/03/12 12:23:42;;;;;;;9.55;5.50;;;23.50;53.70;;;;;;5131587;27;20364;-69
2022/03/12 12:26:09;;;;;;;10.00;5.45;;;23.20;53.80;;;;;;5134410;27;20102;-75
2022/03/12 12:28:48;;;;;;;9.82;5.18;;;22.70;54.70;;;;;;5130969;27;20072;-76
2022/03/12 12:31:24;;;;;;;7.82;4.78;;;22.70;54.60;;;;;;5130239;27;20046;-72
2022/03/12 12:33:54;;;;;;;9.70;5.15;;;22.00;55.20;;;;;;5145907;27;20391;-73
2022/03/12 12:36:22;;;;;;;8.32;5.47;;;21.20;56.30;;;;;;5128318;27;20441;-73
2022/03/12 12:39:06;;;;;;;8.95;5.47;;;20.80;57.40;;;;;;5127203;27;20046;-73
2022/03/12 12:41:55;;;;;;;6.80;4.90;;;20.30;58.50;;;;;;5128637;27;20047;-73
2022/03/12 12:44:42;;;;;;;10.93;5.35;;;20.00;58.80;;;;;;5145824;27;20066;-73
2022/03/12 12:47:10;;;;;;;10.18;5.40;;;19.50;59.00;;;;;;5145527;27;20047;-73
2022/03/12 12:49:40;;;;;;;6.82;4.93;;;19.30;59.60;;;;;;5145104;27;20419;-73
2022/03/12 12:52:07;;;;;;;8.32;5.28;;;19.60;60.60;;;;;;5145630;27;20055;-73